UAE821 OMDB-OEDF
Flight info
| Callsign | UAE821 |
|---|---|
| Flight time | N/A |
| Altitude | 26000 |
| Route | NABIX P699 ORMID Y856 NARMI J735 KFA |
| Aircraft | A359/H-SDE2E3GHIJ3J4J5LM1ORWXY/LB1D1 |
Departure
| Time | 2026-04-25 11:39 |
|---|---|
| Airport | Dubai International Airport (OMDB) |
Arrival
| Time | N/A |
|---|---|
| Airport | King Fahd International Airport (OEDF) |
| Time | Latitude | Longitude | Altitude | Speed | Heading |
|---|---|---|---|---|---|
| 2026-04-25 10:59 | 25.24583 | 55.36623 | 29 ft | 0 kts | 311° |
| 2026-04-25 11:21 | 25.24578 | 55.36628 | 29 ft | 2 kts | 311° |
| 2026-04-25 11:22 | 25.24568 | 55.36642 | 27 ft | 2 kts | 311° |
| 2026-04-25 11:22 | 25.24561 | 55.36650 | 29 ft | 2 kts | 311° |
| 2026-04-25 11:22 | 25.24548 | 55.36673 | 27 ft | 3 kts | 275° |
| 2026-04-25 11:22 | 25.24551 | 55.36695 | 30 ft | 3 kts | 238° |
| 2026-04-25 11:23 | 25.24562 | 55.36713 | 28 ft | 3 kts | 227° |
| 2026-04-25 11:23 | 25.24566 | 55.36718 | 27 ft | 3 kts | 211° |
| 2026-04-25 11:23 | 25.24556 | 55.36711 | 29 ft | 0 kts | 211° |
| 2026-04-25 11:26 | 25.24553 | 55.36709 | 29 ft | 2 kts | 211° |
| 2026-04-25 11:26 | 25.24522 | 55.36689 | 30 ft | 8 kts | 211° |
| 2026-04-25 11:27 | 25.24468 | 55.36630 | 30 ft | 14 kts | 233° |
| 2026-04-25 11:27 | 25.24454 | 55.36516 | 29 ft | 17 kts | 282° |
| 2026-04-25 11:27 | 25.24511 | 55.36398 | 28 ft | 18 kts | 301° |
| 2026-04-25 11:27 | 25.24551 | 55.36325 | 28 ft | 15 kts | 301° |
| 2026-04-25 11:28 | 25.24633 | 55.36178 | 28 ft | 18 kts | 301° |
| 2026-04-25 11:28 | 25.24700 | 55.36057 | 28 ft | 19 kts | 301° |
| 2026-04-25 11:28 | 25.24749 | 55.35969 | 28 ft | 13 kts | 301° |
| 2026-04-25 11:28 | 25.24799 | 55.35878 | 28 ft | 15 kts | 301° |
| 2026-04-25 11:29 | 25.24859 | 55.35772 | 28 ft | 17 kts | 302° |
| 2026-04-25 11:29 | 25.24925 | 55.35666 | 28 ft | 17 kts | 305° |
| 2026-04-25 11:29 | 25.24991 | 55.35554 | 28 ft | 18 kts | 301° |
| 2026-04-25 11:29 | 25.25057 | 55.35436 | 28 ft | 18 kts | 301° |
| 2026-04-25 11:30 | 25.25120 | 55.35322 | 28 ft | 18 kts | 302° |
| 2026-04-25 11:30 | 25.25194 | 55.35212 | 27 ft | 18 kts | 306° |
| 2026-04-25 11:30 | 25.25263 | 55.35092 | 27 ft | 19 kts | 301° |
| 2026-04-25 11:30 | 25.25310 | 55.35006 | 27 ft | 12 kts | 301° |
| 2026-04-25 11:31 | 25.25361 | 55.34924 | 27 ft | 14 kts | 316° |
| 2026-04-25 11:31 | 25.25455 | 55.34898 | 27 ft | 15 kts | 16° |
| 2026-04-25 11:31 | 25.25552 | 55.34962 | 27 ft | 17 kts | 31° |
| 2026-04-25 11:31 | 25.25655 | 55.35031 | 27 ft | 17 kts | 31° |
| 2026-04-25 11:32 | 25.25737 | 55.35086 | 27 ft | 13 kts | 36° |
| 2026-04-25 11:32 | 25.25748 | 55.35155 | 27 ft | 11 kts | 110° |
| 2026-04-25 11:32 | 25.25796 | 55.35238 | 27 ft | 16 kts | 31° |
| 2026-04-25 11:32 | 25.25893 | 55.35304 | 27 ft | 17 kts | 31° |
| 2026-04-25 11:33 | 25.25982 | 55.35400 | 27 ft | 19 kts | 64° |
| 2026-04-25 11:33 | 25.25988 | 55.35537 | 27 ft | 18 kts | 110° |
| 2026-04-25 11:33 | 25.25923 | 55.35659 | 27 ft | 19 kts | 121° |
| 2026-04-25 11:33 | 25.25849 | 55.35792 | 28 ft | 20 kts | 122° |
| 2026-04-25 11:34 | 25.25774 | 55.35927 | 28 ft | 22 kts | 122° |
| 2026-04-25 11:34 | 25.25690 | 55.36077 | 28 ft | 23 kts | 122° |
| 2026-04-25 11:34 | 25.25615 | 55.36211 | 28 ft | 21 kts | 120° |
| 2026-04-25 11:34 | 25.25535 | 55.36357 | 28 ft | 23 kts | 121° |
| 2026-04-25 11:35 | 25.25468 | 55.36478 | 28 ft | 17 kts | 121° |
| 2026-04-25 11:35 | 25.25399 | 55.36602 | 28 ft | 20 kts | 122° |
| 2026-04-25 11:35 | 25.25322 | 55.36740 | 28 ft | 22 kts | 121° |
| 2026-04-25 11:35 | 25.25243 | 55.36881 | 28 ft | 19 kts | 121° |
| 2026-04-25 11:36 | 25.25170 | 55.37013 | 29 ft | 21 kts | 121° |
| 2026-04-25 11:36 | 25.25093 | 55.37153 | 31 ft | 22 kts | 121° |
| 2026-04-25 11:36 | 25.25015 | 55.37295 | 34 ft | 21 kts | 121° |
| 2026-04-25 11:36 | 25.24938 | 55.37433 | 37 ft | 17 kts | 121° |
| 2026-04-25 11:37 | 25.24875 | 55.37547 | 40 ft | 18 kts | 121° |
| 2026-04-25 11:37 | 25.24810 | 55.37666 | 42 ft | 19 kts | 121° |
| 2026-04-25 11:37 | 25.24740 | 55.37792 | 45 ft | 19 kts | 122° |
| 2026-04-25 11:37 | 25.24684 | 55.37891 | 47 ft | 16 kts | 122° |
| 2026-04-25 11:38 | 25.24686 | 55.37962 | 48 ft | 8 kts | 51° |
| 2026-04-25 11:38 | 25.24752 | 55.38008 | 48 ft | 13 kts | 31° |
| 2026-04-25 11:38 | 25.24822 | 55.38010 | 47 ft | 9 kts | 320° |
| 2026-04-25 11:38 | 25.24886 | 55.37895 | 45 ft | 45 kts | 301° |
| 2026-04-25 11:39 | 25.25194 | 55.37342 | 33 ft | 122 kts | 301° |
| 2026-04-25 11:39 | 25.25750 | 55.36335 | 93 ft | 179 kts | 302° |
| 2026-04-25 11:39 | 25.26439 | 55.35080 | 586 ft | 202 kts | 302° |
| 2026-04-25 11:39 | 25.27199 | 55.33697 | 1150 ft | 214 kts | 301° |
| 2026-04-25 11:40 | 25.27980 | 55.32264 | 1699 ft | 221 kts | 301° |
| 2026-04-25 11:40 | 25.28774 | 55.30782 | 2330 ft | 226 kts | 299° |
| 2026-04-25 11:40 | 25.29180 | 55.29115 | 3047 ft | 234 kts | 271° |
| 2026-04-25 11:40 | 25.28878 | 55.27336 | 3696 ft | 237 kts | 261° |
| 2026-04-25 11:41 | 25.28678 | 55.25519 | 4344 ft | 240 kts | 266° |
| 2026-04-25 11:41 | 25.28549 | 55.23674 | 4984 ft | 241 kts | 266° |
| 2026-04-25 11:41 | 25.28410 | 55.21823 | 5626 ft | 243 kts | 265° |
| 2026-04-25 11:41 | 25.28256 | 55.19961 | 6283 ft | 244 kts | 265° |
| 2026-04-25 11:42 | 25.28094 | 55.18090 | 6908 ft | 245 kts | 264° |
| 2026-04-25 11:42 | 25.27919 | 55.16215 | 7536 ft | 245 kts | 264° |
| 2026-04-25 11:42 | 25.27735 | 55.14342 | 8178 ft | 245 kts | 263° |
| 2026-04-25 11:42 | 25.27545 | 55.12475 | 8833 ft | 245 kts | 263° |
| 2026-04-25 11:43 | 25.27352 | 55.10609 | 9503 ft | 244 kts | 263° |
| 2026-04-25 11:43 | 25.27157 | 55.08746 | 10141 ft | 243 kts | 263° |
| 2026-04-25 11:43 | 25.26962 | 55.06893 | 10763 ft | 242 kts | 262° |
| 2026-04-25 11:43 | 25.26768 | 55.05051 | 11392 ft | 240 kts | 262° |
| 2026-04-25 11:44 | 25.26605 | 55.03228 | 12036 ft | 238 kts | 266° |
| 2026-04-25 11:44 | 25.26684 | 55.01431 | 12700 ft | 235 kts | 272° |
| 2026-04-25 11:44 | 25.26851 | 54.99651 | 13360 ft | 231 kts | 274° |
| 2026-04-25 11:44 | 25.27065 | 54.97913 | 13998 ft | 225 kts | 275° |
| 2026-04-25 11:45 | 25.27305 | 54.96228 | 14618 ft | 218 kts | 276° |
| 2026-04-25 11:45 | 25.27552 | 54.94607 | 15217 ft | 209 kts | 277° |
| 2026-04-25 11:45 | 25.27802 | 54.93043 | 15765 ft | 204 kts | 277° |
| 2026-04-25 11:45 | 25.28060 | 54.91439 | 15916 ft | 223 kts | 277° |
| 2026-04-25 11:46 | 25.28333 | 54.89692 | 16074 ft | 238 kts | 277° |
| 2026-04-25 11:46 | 25.28618 | 54.87833 | 16306 ft | 252 kts | 277° |
| 2026-04-25 11:46 | 25.28914 | 54.85869 | 16533 ft | 266 kts | 277° |
| 2026-04-25 11:46 | 25.29222 | 54.83803 | 16776 ft | 279 kts | 277° |
| 2026-04-25 11:47 | 25.29543 | 54.81635 | 17016 ft | 293 kts | 277° |
| 2026-04-25 11:47 | 25.29879 | 54.79362 | 17257 ft | 306 kts | 277° |
| 2026-04-25 11:47 | 25.30229 | 54.76995 | 17487 ft | 318 kts | 277° |
| 2026-04-25 11:47 | 25.30592 | 54.74539 | 17724 ft | 330 kts | 277° |
| 2026-04-25 11:48 | 25.30839 | 54.72862 | 17876 ft | 338 kts | 277° |
| 2026-04-25 11:48 | 25.31356 | 54.69366 | 18160 ft | 352 kts | 277° |
| 2026-04-25 11:48 | 25.31756 | 54.66654 | 18348 ft | 361 kts | 277° |
| 2026-04-25 11:48 | 25.32164 | 54.63879 | 18505 ft | 370 kts | 277° |
| 2026-04-25 11:49 | 25.32582 | 54.61039 | 18702 ft | 378 kts | 277° |
| 2026-04-25 11:49 | 25.33000 | 54.58190 | 18982 ft | 382 kts | 277° |
| 2026-04-25 11:49 | 25.33428 | 54.55281 | 19350 ft | 383 kts | 277° |
| 2026-04-25 11:49 | 25.33856 | 54.52363 | 19711 ft | 384 kts | 277° |
| 2026-04-25 11:50 | 25.34283 | 54.49439 | 20075 ft | 386 kts | 277° |
| 2026-04-25 11:50 | 25.34711 | 54.46509 | 20446 ft | 387 kts | 277° |
| 2026-04-25 11:50 | 25.35139 | 54.43570 | 20813 ft | 388 kts | 277° |
| 2026-04-25 11:50 | 25.35567 | 54.40623 | 21180 ft | 389 kts | 277° |
| 2026-04-25 11:51 | 25.35991 | 54.37704 | 21538 ft | 390 kts | 277° |
| 2026-04-25 11:51 | 25.36421 | 54.34732 | 21904 ft | 391 kts | 277° |
| 2026-04-25 11:51 | 25.36851 | 54.31759 | 22259 ft | 392 kts | 277° |
| 2026-04-25 11:51 | 25.37282 | 54.28778 | 22617 ft | 393 kts | 277° |
| 2026-04-25 11:52 | 25.37713 | 54.25789 | 22966 ft | 394 kts | 277° |
| 2026-04-25 11:52 | 25.38145 | 54.22793 | 23314 ft | 396 kts | 277° |
| 2026-04-25 11:52 | 25.38578 | 54.19782 | 23626 ft | 397 kts | 277° |
| 2026-04-25 11:52 | 25.39012 | 54.16758 | 23894 ft | 398 kts | 277° |
| 2026-04-25 11:53 | 25.39446 | 54.13728 | 24152 ft | 400 kts | 277° |
| 2026-04-25 11:53 | 25.39882 | 54.10683 | 24424 ft | 402 kts | 277° |
| 2026-04-25 11:53 | 25.40320 | 54.07621 | 24695 ft | 403 kts | 277° |
| 2026-04-25 11:53 | 25.40758 | 54.04553 | 24970 ft | 404 kts | 277° |
| 2026-04-25 11:54 | 25.41197 | 54.01470 | 25243 ft | 406 kts | 277° |
| 2026-04-25 11:54 | 25.41637 | 53.98378 | 25514 ft | 407 kts | 277° |
| 2026-04-25 11:54 | 25.42512 | 53.92223 | 25881 ft | 399 kts | 277° |
| 2026-04-25 11:55 | 25.42938 | 53.89241 | 25891 ft | 387 kts | 277° |
| 2026-04-25 11:55 | 25.43353 | 53.86315 | 25896 ft | 383 kts | 276° |
| 2026-04-25 11:55 | 25.43764 | 53.83404 | 25896 ft | 383 kts | 276° |
| 2026-04-25 11:55 | 25.44173 | 53.80494 | 25893 ft | 383 kts | 276° |
| 2026-04-25 11:56 | 25.44582 | 53.77580 | 25896 ft | 383 kts | 276° |
| 2026-04-25 11:56 | 25.44990 | 53.74669 | 25893 ft | 382 kts | 276° |
| 2026-04-25 11:56 | 25.45398 | 53.71761 | 25893 ft | 382 kts | 276° |
| 2026-04-25 11:56 | 25.45804 | 53.68857 | 25894 ft | 382 kts | 276° |
| 2026-04-25 11:57 | 25.46074 | 53.66930 | 25891 ft | 382 kts | 276° |
| 2026-04-25 11:57 | 25.46612 | 53.63078 | 25892 ft | 382 kts | 276° |
| 2026-04-25 11:57 | 25.47018 | 53.60170 | 25893 ft | 383 kts | 276° |
| 2026-04-25 11:57 | 25.47425 | 53.57250 | 25896 ft | 383 kts | 276° |
| 2026-04-25 11:58 | 25.47699 | 53.55285 | 25893 ft | 383 kts | 276° |
| 2026-04-25 11:58 | 25.48235 | 53.51429 | 25891 ft | 383 kts | 276° |
| 2026-04-25 11:58 | 25.48502 | 53.49503 | 25894 ft | 383 kts | 276° |
| 2026-04-25 11:58 | 25.49043 | 53.45595 | 25893 ft | 383 kts | 276° |
| 2026-04-25 11:59 | 25.49311 | 53.43661 | 25897 ft | 383 kts | 276° |
| 2026-04-25 11:59 | 25.49844 | 53.39804 | 25894 ft | 383 kts | 276° |
| 2026-04-25 11:59 | 25.50115 | 53.37837 | 25891 ft | 383 kts | 276° |
| 2026-04-25 12:00 | 25.50913 | 53.32040 | 25896 ft | 383 kts | 276° |
| 2026-04-25 12:00 | 25.51313 | 53.29127 | 25895 ft | 383 kts | 276° |
| 2026-04-25 12:00 | 25.52114 | 53.23290 | 25893 ft | 383 kts | 276° |
| 2026-04-25 12:01 | 25.52248 | 53.22308 | 25894 ft | 383 kts | 276° |
| 2026-04-25 12:01 | 25.53769 | 53.11153 | 25895 ft | 383 kts | 276° |
| 2026-04-25 12:02 | 25.54562 | 53.05314 | 25895 ft | 383 kts | 276° |
| 2026-04-25 12:02 | 25.54957 | 53.02398 | 25902 ft | 383 kts | 276° |
| 2026-04-25 12:02 | 25.55351 | 52.99485 | 25901 ft | 383 kts | 276° |
| 2026-04-25 12:03 | 25.55745 | 52.96568 | 25901 ft | 383 kts | 276° |
| 2026-04-25 12:03 | 25.56142 | 52.93692 | 25899 ft | 383 kts | 278° |
| 2026-04-25 12:03 | 25.56825 | 52.90825 | 25900 ft | 386 kts | 287° |
| 2026-04-25 12:03 | 25.57890 | 52.88088 | 25905 ft | 388 kts | 291° |
| 2026-04-25 12:04 | 25.59085 | 52.85407 | 25906 ft | 389 kts | 294° |
| 2026-04-25 12:04 | 25.60350 | 52.82759 | 25902 ft | 389 kts | 295° |
| 2026-04-25 12:04 | 25.61648 | 52.80126 | 25903 ft | 389 kts | 295° |
| 2026-04-25 12:04 | 25.62961 | 52.77490 | 25904 ft | 389 kts | 295° |
| 2026-04-25 12:05 | 25.64267 | 52.74860 | 25907 ft | 389 kts | 295° |
| 2026-04-25 12:05 | 25.65569 | 52.72224 | 25911 ft | 389 kts | 295° |
| 2026-04-25 12:05 | 25.66860 | 52.69592 | 25908 ft | 389 kts | 295° |
| 2026-04-25 12:05 | 25.68147 | 52.66955 | 25909 ft | 389 kts | 295° |
| 2026-04-25 12:06 | 25.69432 | 52.64312 | 25908 ft | 389 kts | 294° |
| 2026-04-25 12:06 | 25.70715 | 52.61671 | 25907 ft | 389 kts | 294° |
| 2026-04-25 12:06 | 25.71980 | 52.59062 | 25909 ft | 389 kts | 294° |
| 2026-04-25 12:06 | 25.73259 | 52.56425 | 25910 ft | 389 kts | 294° |
| 2026-04-25 12:07 | 25.74541 | 52.53781 | 25908 ft | 389 kts | 294° |
| 2026-04-25 12:07 | 25.75819 | 52.51143 | 25908 ft | 389 kts | 294° |
| 2026-04-25 12:07 | 25.77098 | 52.48493 | 25910 ft | 389 kts | 294° |
| 2026-04-25 12:07 | 25.78353 | 52.45835 | 25909 ft | 388 kts | 294° |
| 2026-04-25 12:08 | 25.79596 | 52.43163 | 25913 ft | 388 kts | 294° |
| 2026-04-25 12:08 | 25.80828 | 52.40498 | 25916 ft | 388 kts | 293° |
| 2026-04-25 12:08 | 25.82059 | 52.37833 | 25914 ft | 388 kts | 293° |
| 2026-04-25 12:08 | 25.83292 | 52.35164 | 25914 ft | 388 kts | 293° |
| 2026-04-25 12:09 | 25.84520 | 52.32496 | 25915 ft | 388 kts | 293° |
| 2026-04-25 12:09 | 25.85748 | 52.29825 | 25915 ft | 388 kts | 293° |
| 2026-04-25 12:09 | 25.87149 | 52.27246 | 25915 ft | 392 kts | 302° |
| 2026-04-25 12:09 | 25.88860 | 52.24876 | 25919 ft | 394 kts | 306° |
| 2026-04-25 12:10 | 25.90638 | 52.22603 | 25922 ft | 395 kts | 307° |
| 2026-04-25 12:10 | 25.92490 | 52.20338 | 25920 ft | 395 kts | 308° |
| 2026-04-25 12:10 | 25.94360 | 52.18098 | 25921 ft | 395 kts | 308° |
| 2026-04-25 12:10 | 25.96235 | 52.15865 | 25921 ft | 395 kts | 308° |
| 2026-04-25 12:11 | 25.98109 | 52.13629 | 25920 ft | 395 kts | 308° |
| 2026-04-25 12:11 | 25.99982 | 52.11385 | 25919 ft | 395 kts | 308° |
| 2026-04-25 12:11 | 26.01847 | 52.09139 | 25922 ft | 395 kts | 308° |
| 2026-04-25 12:11 | 26.03707 | 52.06893 | 25923 ft | 395 kts | 308° |
| 2026-04-25 12:12 | 26.05566 | 52.04645 | 25923 ft | 395 kts | 308° |
| 2026-04-25 12:12 | 26.06801 | 52.03152 | 25921 ft | 395 kts | 308° |
| 2026-04-25 12:12 | 26.09290 | 52.00137 | 25919 ft | 395 kts | 308° |
| 2026-04-25 12:12 | 26.11125 | 51.97910 | 25920 ft | 395 kts | 307° |
| 2026-04-25 12:13 | 26.12981 | 51.95656 | 25917 ft | 395 kts | 307° |
| 2026-04-25 12:13 | 26.14840 | 51.93400 | 25923 ft | 395 kts | 307° |
| 2026-04-25 12:13 | 26.16695 | 51.91147 | 25924 ft | 395 kts | 307° |